Oklee, MN

12:45 PM CST on December 22, 2014 (GMT -0600)
Fosston Municipal | Change Station
CLOSE
Current Station
Airport
Location: Fosston,
Elevation: 1276 ft
Nearby Weather Stations

Elev 1276 ft 47.59 °N, 95.77 °W | Updated 10 minutes ago

Overcast
Overcast
36 °F
Feels Like 29 °F
N
8
Wind Variable Wind from ESE

Today
High -- | Low -- °F
--% Chance of Precip.
Yesterday
High -- | Low -- °F
Precip. -- in
8:10 AM 4:33 PM
New Moon, 1% visible
Pressure 29.54 in
Visibility 10.0 miles
Clouds Scattered Clouds 700 ft
Overcast 1400 ft
Windchill 29 °F
Dew Point 34 °F
Humidity 93%
Rainfall 0.00 in
Snow Depth Not available.
UV 0 out of 12
Pollen .10 out of 12
Air Quality Not available.
Flu Activity Not available.
METAR KFSE 221835Z AUTO 11007KT 10SM SCT007 OVC014 02/01 A2954 RMK AO2

More Conditions Fewer Conditions

Pressure 29.54 in
Visibility 10.0 miles
Clouds Scattered Clouds 700 ft
Overcast 1400 ft
Windchill 29 °F
Dew Point 34 °F
Humidity 93%
Rainfall 0.00 in
Snow Depth Not available.
UV 0 out of 12
Pollen .10 out of 12
Air Quality Not available.
Flu Activity Not available.
METAR KFSE 221835Z AUTO 11007KT 10SM SCT007 OVC014 02/01 A2954 RMK AO2

More Conditions Fewer Conditions

10-Day Weather Forecast

Almanac

Astronomy

Dec. 22, 2014 Rise Set
Actual Time
Civil Twilight
Nautical Twilight
Astronomical Twilight
Moon
Length of Visible Light
Length of Day
Tomorrow will be .
, % of the Moon is Illuminated

Today's Extremes

State Highs State Lows

Community

WunderPhotos

Upload Photos

1,779,687 photos uploaded!

WunderBlogs® & News

Nearby

Air Quality

  Air Quality AQ Index Pollutant
Not available.

Snow Depth

Station Depth Elevation

Earthquake Activity

City Distance Mag. Time & Date
Minimum magnitude displayed is 2.5.

Coastal Water Temperatures

Place Temperature

Nearby Weather Stations